Aviation Digital Data Service (ADDS)

Output produced by METARs form (2109 UTC 18 September 2018)
found at http://www.aviationweather.gov/metar/data/
 
KCLT 182052Z 30006KT 10SM FEW055 SCT150 BKN250 31/19 A2990 RMK AO2 SLP113 TCU DSNT SW T03110194 56014
KCLT 182003Z 1820/1924 31009KT P6SM FEW050 SCT150 
     FM182300 34003KT P6SM FEW150 
     FM191400 35006KT P6SM FEW200